Time;durP1;ratioP1;P1;durP2;ratioP2;P2;SDS_P1;SDS_P2;PMS_P1;PMS_P2;Temp;Humidity;BMP_temperature;BMP_pressure;BME280_temperature;BME280_humidity;BME280_pressure;Samples;Min_cycle;Max_cycle;Signal;HPM_P1;HPM_P2
2023/05/06 00:03:55;;;;;;;0.60;0.10;;;17.90;99.90;;;;;;5033608;28;20463;-75
2023/05/06 00:06:26;;;;;;;0.60;0.10;;;17.70;99.90;;;;;;5033646;28;20447;-75
2023/05/06 00:08:54;;;;;;;0.60;0.10;;;17.60;99.90;;;;;;5033771;28;20921;-76
2023/05/06 00:11:21;;;;;;;0.60;0.20;;;17.50;99.90;;;;;;5034414;28;20816;-75
2023/05/06 00:13:49;;;;;;;0.60;0.10;;;17.50;99.90;;;;;;5034122;28;20466;-75
2023/05/06 00:16:17;;;;;;;0.60;0.10;;;17.50;99.90;;;;;;5034972;28;20470;-75
2023/05/06 00:18:45;;;;;;;0.60;0.20;;;;;;;;;;5037080;22;20500;-76
2023/05/06 00:21:14;;;;;;;0.60;0.10;;;;;;;;;;4985044;28;20449;-77
2023/05/06 00:23:43;;;;;;;0.60;0.10;;;17.20;99.90;;;;;;4995552;28;20451;-74
2023/05/06 00:26:10;;;;;;;0.60;0.20;;;17.20;99.90;;;;;;4982461;28;20449;-75
2023/05/06 00:28:39;;;;;;;0.60;0.20;;;;;;;;;;4996531;28;20464;-75
2023/05/06 00:31:08;;;;;;;0.60;0.10;;;17.30;99.90;;;;;;4996708;28;20453;-76
2023/05/06 00:33:36;;;;;;;0.60;0.10;;;17.40;99.90;;;;;;4995565;28;20993;-74
2023/05/06 00:36:04;;;;;;;0.60;0.20;;;17.40;99.90;;;;;;4994659;28;20471;-74
2023/05/06 00:38:32;;;;;;;0.60;0.10;;;;;;;;;;4994568;28;20472;-74
2023/05/06 00:41:02;;;;;;;0.60;0.10;;;17.60;99.90;;;;;;4994570;28;20448;-73
2023/05/06 00:43:30;;;;;;;0.60;0.10;;;17.50;99.90;;;;;;4994252;28;20568;-77
2023/05/06 00:45:57;;;;;;;0.60;0.10;;;17.50;99.90;;;;;;4994531;28;20456;-74
2023/05/06 00:48:25;;;;;;;0.60;0.10;;;17.50;99.90;;;;;;4993796;28;20464;-74
2023/05/06 00:50:53;;;;;;;0.60;0.10;;;17.50;99.90;;;;;;4994588;28;20455;-74
2023/05/06 00:53:21;;;;;;;0.60;0.10;;;17.50;99.90;;;;;;4993831;28;20765;-74
2023/05/06 00:55:50;;;;;;;0.60;0.10;;;17.50;99.90;;;;;;4994106;28;20449;-73
2023/05/06 00:58:19;;;;;;;0.60;0.10;;;17.50;99.90;;;;;;4994124;28;20495;-74
2023/05/06 01:00:47;;;;;;;0.60;0.10;;;;;;;;;;4994596;28;20449;-74
2023/05/06 01:03:16;;;;;;;0.60;0.17;;;17.40;99.90;;;;;;4993575;28;20583;-75
2023/05/06 01:05:51;;;;;;;0.60;0.20;;;17.40;99.90;;;;;;4993989;28;20552;-73
2023/05/06 01:08:25;;;;;;;0.60;0.10;;;17.40;99.90;;;;;;4993381;28;20458;-75
2023/05/06 01:10:57;;;;;;;0.60;0.20;;;17.30;99.90;;;;;;4993463;28;20456;-74
2023/05/06 01:13:34;;;;;;;0.60;0.20;;;17.40;99.90;;;;;;4993151;28;20448;-74
2023/05/06 01:16:04;;;;;;;0.60;0.10;;;17.40;99.90;;;;;;4993348;28;20809;-73
2023/05/06 01:18:32;;;;;;;0.60;0.20;;;17.40;99.90;;;;;;4993161;28;20476;-74
2023/05/06 01:21:02;;;;;;;0.60;0.10;;;17.30;99.90;;;;;;4993924;28;20452;-74
2023/05/06 01:23:50;;;;;;;0.60;0.20;;;17.10;99.90;;;;;;4993419;28;20842;-74
2023/05/06 01:26:18;;;;;;;0.60;0.10;;;17.10;99.90;;;;;;4993436;28;20993;-75
2023/05/06 01:28:46;;;;;;;0.60;0.20;;;17.00;99.90;;;;;;4993590;28;20477;-74
2023/05/06 01:31:20;;;;;;;0.60;0.10;;;17.10;99.90;;;;;;4993585;28;20453;-74
2023/05/06 01:33:54;;;;;;;0.60;0.20;;;17.00;99.90;;;;;;4993265;28;20531;-75
2023/05/06 01:36:28;;;;;;;0.60;0.10;;;17.00;99.90;;;;;;4993682;28;20453;-74
2023/05/06 01:39:05;;;;;;;0.60;0.20;;;17.10;99.90;;;;;;4993418;28;20982;-74
2023/05/06 01:41:34;;;;;;;0.60;0.10;;;17.20;99.90;;;;;;4993661;28;20837;-74
2023/05/06 01:44:05;;;;;;;0.60;0.13;;;17.20;99.90;;;;;;4993122;28;20493;-74
2023/05/06 01:46:35;;;;;;;0.60;0.10;;;17.20;99.90;;;;;;4993366;28;20432;-74
2023/05/06 01:49:05;;;;;;;0.60;0.10;;;17.10;99.90;;;;;;4992982;28;20474;-75
2023/05/06 01:51:33;;;;;;;0.60;0.20;;;17.10;99.90;;;;;;4993243;28;20859;-75
2023/05/06 01:54:03;;;;;;;0.60;0.13;;;17.20;99.90;;;;;;4993086;28;20452;-75
2023/05/06 01:56:31;;;;;;;0.60;0.20;;;;;;;;;;4993127;28;20520;-74
2023/05/06 01:58:59;;;;;;;0.60;0.20;;;17.20;99.90;;;;;;4992919;28;20475;-74
2023/05/06 02:01:27;;;;;;;0.60;0.10;;;17.20;99.90;;;;;;4992731;28;20449;-76
2023/05/06 02:03:55;;;;;;;0.60;0.10;;;17.20;99.90;;;;;;4992681;28;20487;-73
2023/05/06 02:06:23;;;;;;;0.60;0.20;;;17.20;99.90;;;;;;4993282;28;20451;-74
2023/05/06 02:08:51;;;;;;;0.60;0.20;;;17.10;99.90;;;;;;4993215;28;20589;-73
2023/05/06 02:11:21;;;;;;;0.60;0.20;;;16.90;99.90;;;;;;4993142;28;20452;-73
2023/05/06 02:13:48;;;;;;;0.60;0.20;;;16.90;99.90;;;;;;4992662;28;20501;-76
2023/05/06 02:16:16;;;;;;;0.60;0.20;;;16.90;99.90;;;;;;4993061;28;20456;-74
2023/05/06 02:18:44;;;;;;;0.60;0.20;;;16.80;99.90;;;;;;4991836;28;20480;-76
2023/05/06 02:21:12;;;;;;;0.60;0.10;;;;;;;;;;4992879;28;20457;-73
2023/05/06 02:23:40;;;;;;;0.60;0.10;;;16.40;99.90;;;;;;4992586;28;21056;-73
2023/05/06 02:26:09;;;;;;;0.60;0.20;;;16.40;99.90;;;;;;4993019;28;20449;-74
2023/05/06 02:28:38;;;;;;;0.60;0.10;;;16.40;99.90;;;;;;4992653;28;20489;-77
2023/05/06 02:31:06;;;;;;;0.60;0.20;;;16.40;99.90;;;;;;4992819;28;20456;-75
2023/05/06 02:33:34;;;;;;;0.60;0.20;;;16.40;99.90;;;;;;4992469;28;20440;-74
2023/05/06 02:36:02;;;;;;;0.90;0.20;;;16.40;99.90;;;;;;4992661;28;20454;-73
2023/05/06 02:38:30;;;;;;;0.60;0.10;;;16.50;99.90;;;;;;4992620;28;20781;-74
2023/05/06 02:40:58;;;;;;;0.60;0.10;;;;;;;;;;4992904;28;20444;-74
2023/05/06 02:43:26;;;;;;;0.60;0.10;;;16.50;99.90;;;;;;4992550;28;20543;-74
2023/05/06 02:45:55;;;;;;;0.60;0.10;;;16.50;99.90;;;;;;4992467;28;20455;-74
2023/05/06 02:48:23;;;;;;;0.60;0.10;;;16.50;99.90;;;;;;4992721;28;20837;-74
2023/05/06 02:50:51;;;;;;;0.60;0.10;;;16.50;99.90;;;;;;4992649;28;20456;-74
2023/05/06 02:53:19;;;;;;;0.60;0.10;;;16.50;99.90;;;;;;4992052;28;20452;-73
2023/05/06 02:55:47;;;;;;;0.60;0.10;;;16.50;99.90;;;;;;4992700;28;20453;-74
2023/05/06 02:58:15;;;;;;;0.60;0.10;;;16.50;99.90;;;;;;4992562;28;20495;-73
2023/05/06 03:00:43;;;;;;;0.60;0.10;;;16.50;99.90;;;;;;4992326;28;20444;-74
2023/05/06 03:03:12;;;;;;;0.60;0.10;;;16.20;99.90;;;;;;4991978;28;20967;-75
2023/05/06 03:05:40;;;;;;;0.60;0.10;;;16.20;99.90;;;;;;4992715;28;20452;-74
2023/05/06 03:08:07;;;;;;;0.90;0.33;;;16.20;99.90;;;;;;4992243;28;20451;-75
2023/05/06 03:10:36;;;;;;;0.60;0.10;;;;;;;;;;4992429;28;20804;-75
2023/05/06 03:13:03;;;;;;;0.60;0.10;;;16.00;99.90;;;;;;4992185;28;20448;-75
2023/05/06 03:15:31;;;;;;;0.60;0.10;;;16.00;99.90;;;;;;4992426;28;20468;-74
2023/05/06 03:17:59;;;;;;;0.60;0.10;;;16.10;99.90;;;;;;4991390;28;20460;-73
2023/05/06 03:20:29;;;;;;;0.60;0.10;;;15.90;99.90;;;;;;4990306;28;21013;-73
2023/05/06 03:22:57;;;;;;;0.60;0.10;;;15.70;99.90;;;;;;4990961;28;20444;-73
2023/05/06 03:25:25;;;;;;;0.60;0.10;;;15.70;99.90;;;;;;4991549;28;20449;-75
2023/05/06 03:27:53;;;;;;;1.63;0.30;;;;;;;;;;4992310;28;20448;-77
2023/05/06 03:30:21;;;;;;;0.60;0.10;;;15.70;99.90;;;;;;4992366;28;21082;-75
2023/05/06 03:32:49;;;;;;;0.60;0.10;;;15.60;99.90;;;;;;4995835;28;20452;-74
2023/05/06 03:35:17;;;;;;;0.60;0.10;;;15.60;99.90;;;;;;4995567;28;20466;-73
2023/05/06 03:37:46;;;;;;;0.60;0.20;;;15.70;99.90;;;;;;4995540;28;20444;-73
2023/05/06 03:40:14;;;;;;;0.60;0.10;;;15.70;99.90;;;;;;4996340;28;20991;-74
2023/05/06 03:42:41;;;;;;;0.60;0.10;;;15.70;99.90;;;;;;4997588;28;20510;-75
2023/05/06 03:45:10;;;;;;;0.60;0.10;;;15.70;99.90;;;;;;4995946;28;20539;-76
2023/05/06 03:47:38;;;;;;;0.60;0.10;;;15.80;99.90;;;;;;4995359;28;20483;-74
2023/05/06 03:50:06;;;;;;;0.60;0.10;;;15.80;99.90;;;;;;4995646;28;20464;-75
2023/05/06 03:52:34;;;;;;;0.60;0.13;;;15.90;99.90;;;;;;4995344;28;20950;-75
2023/05/06 03:55:04;;;;;;;0.60;0.10;;;15.80;99.90;;;;;;4995527;28;20455;-75
2023/05/06 03:57:32;;;;;;;1.00;0.70;;;15.80;99.90;;;;;;4995291;28;20455;-78
2023/05/06 04:00:00;;;;;;;0.60;0.10;;;;;;;;;;4995248;28;20472;-77
2023/05/06 04:02:28;;;;;;;0.60;0.20;;;15.80;99.90;;;;;;4994426;28;20460;-77
2023/05/06 04:04:56;;;;;;;0.60;0.10;;;15.80;99.90;;;;;;4995354;28;20488;-74
2023/05/06 04:07:24;;;;;;;0.60;0.10;;;;;;;;;;4995457;28;20451;-76
2023/05/06 04:09:52;;;;;;;0.60;0.10;;;15.80;99.90;;;;;;4995429;28;20467;-74
2023/05/06 04:12:21;;;;;;;0.70;0.20;;;15.80;99.90;;;;;;4995265;28;20501;-75
2023/05/06 04:14:49;;;;;;;0.60;0.10;;;15.70;99.90;;;;;;4995334;28;20459;-74
2023/05/06 04:17:17;;;;;;;0.60;0.10;;;15.50;99.90;;;;;;4995252;28;20949;-74
2023/05/06 04:19:46;;;;;;;0.60;0.10;;;;;;;;;;4995336;28;20946;-74
2023/05/06 04:22:13;;;;;;;0.60;0.10;;;15.20;99.90;;;;;;4994894;28;20440;-75
2023/05/06 04:24:44;;;;;;;0.60;0.10;;;15.30;99.90;;;;;;4994705;28;20510;-74
2023/05/06 04:27:12;;;;;;;0.60;0.10;;;15.30;99.90;;;;;;4994706;28;20451;-74
2023/05/06 04:29:41;;;;;;;0.60;0.20;;;15.30;99.90;;;;;;4994811;28;20540;-74
2023/05/06 04:32:10;;;;;;;0.60;0.20;;;15.30;99.90;;;;;;4994629;28;20495;-74
2023/05/06 04:34:38;;;;;;;0.60;0.10;;;15.40;99.90;;;;;;4995066;28;20449;-74
2023/05/06 04:37:06;;;;;;;0.60;0.10;;;15.40;99.90;;;;;;4994846;28;20454;-74
2023/05/06 04:39:35;;;;;;;0.60;0.10;;;15.50;99.90;;;;;;4994819;28;20469;-74
2023/05/06 04:42:04;;;;;;;0.60;0.10;;;;;;;;;;4993926;28;20441;-74
2023/05/06 04:44:32;;;;;;;0.60;0.10;;;15.20;99.90;;;;;;4994799;28;20493;-74
2023/05/06 04:47:02;;;;;;;0.60;0.10;;;15.20;99.90;;;;;;4994768;28;20446;-74
2023/05/06 04:49:30;;;;;;;0.60;0.10;;;15.20;99.90;;;;;;4994677;28;20466;-74
2023/05/06 04:51:57;;;;;;;0.60;0.10;;;15.20;99.90;;;;;;4994623;28;20827;-76
2023/05/06 04:54:25;;;;;;;0.60;0.10;;;15.30;99.90;;;;;;4994716;28;20464;-74
2023/05/06 04:56:54;;;;;;;0.60;0.10;;;15.30;99.90;;;;;;4994512;28;20979;-77
2023/05/06 04:59:22;;;;;;;0.60;0.10;;;15.40;99.90;;;;;;4994425;28;20492;-75
2023/05/06 05:01:50;;;;;;;0.60;0.10;;;15.50;99.90;;;;;;4994054;28;20457;-75
2023/05/06 05:04:19;;;;;;;0.60;0.10;;;15.60;99.90;;;;;;4994025;28;20563;-77
2023/05/06 05:06:47;;;;;;;0.60;0.10;;;15.70;99.90;;;;;;4994441;28;20817;-74
2023/05/06 05:09:14;;;;;;;4.83;1.50;;;15.70;99.90;;;;;;4993943;28;21020;-75
2023/05/06 05:11:42;;;;;;;0.60;0.10;;;15.70;99.90;;;;;;4994090;28;20449;-75
2023/05/06 05:14:10;;;;;;;0.60;0.10;;;15.80;99.90;;;;;;4993661;28;20515;-74
2023/05/06 05:16:38;;;;;;;0.60;0.13;;;15.90;99.90;;;;;;4993960;28;20452;-76
2023/05/06 05:19:06;;;;;;;0.60;0.10;;;;;;;;;;4993842;28;20473;-74
2023/05/06 05:21:37;;;;;;;2.90;1.50;;;16.00;99.90;;;;;;4993929;28;20513;-73
2023/05/06 05:24:05;;;;;;;0.60;0.10;;;16.00;99.90;;;;;;4994250;28;20487;-75
2023/05/06 05:26:33;;;;;;;0.60;0.10;;;16.10;99.90;;;;;;4993584;28;20956;-74
2023/05/06 05:29:01;;;;;;;0.60;0.20;;;16.10;99.90;;;;;;4993878;28;20476;-74
2023/05/06 05:31:30;;;;;;;0.60;0.10;;;16.20;99.90;;;;;;4993818;28;20448;-75
2023/05/06 05:33:57;;;;;;;0.60;0.20;;;16.20;99.90;;;;;;4993262;28;20453;-74
2023/05/06 05:36:26;;;;;;;0.60;0.10;;;16.10;99.90;;;;;;4993539;28;21007;-75
2023/05/06 05:38:55;;;;;;;0.60;0.10;;;16.20;99.90;;;;;;4993542;28;20472;-75
2023/05/06 05:41:25;;;;;;;0.60;0.10;;;16.20;99.90;;;;;;4993591;28;20521;-74
2023/05/06 05:43:53;;;;;;;0.60;0.10;;;16.30;99.90;;;;;;4993199;28;20837;-76
2023/05/06 05:46:20;;;;;;;0.60;0.10;;;16.30;99.90;;;;;;4993159;28;20915;-73
2023/05/06 05:48:48;;;;;;;0.60;0.30;;;16.30;99.90;;;;;;4993579;28;20472;-74
2023/05/06 05:51:16;;;;;;;0.60;0.20;;;16.40;99.90;;;;;;4993380;28;21025;-74
2023/05/06 05:53:44;;;;;;;0.60;0.10;;;16.40;99.90;;;;;;4993725;28;20454;-75
2023/05/06 05:56:13;;;;;;;0.60;0.10;;;16.50;99.90;;;;;;4993799;28;20441;-75
2023/05/06 05:58:41;;;;;;;0.60;0.10;;;16.50;99.90;;;;;;4993529;28;20530;-75
2023/05/06 06:01:09;;;;;;;0.60;0.20;;;16.60;99.90;;;;;;4993255;28;20508;-75
2023/05/06 06:03:37;;;;;;;0.60;0.20;;;16.60;99.90;;;;;;4993372;28;20457;-75
2023/05/06 06:06:05;;;;;;;0.60;0.10;;;16.60;99.90;;;;;;4993251;28;20491;-74
2023/05/06 06:08:33;;;;;;;0.60;0.10;;;16.60;99.90;;;;;;4993479;28;20475;-74
2023/05/06 06:11:03;;;;;;;1.70;1.60;;;16.60;99.90;;;;;;4993088;28;20449;-73
2023/05/06 06:13:32;;;;;;;0.60;0.10;;;16.70;99.90;;;;;;4993659;28;21020;-75
2023/05/06 06:16:00;;;;;;;0.60;0.20;;;16.70;99.90;;;;;;4993244;28;20844;-75
2023/05/06 06:18:28;;;;;;;5.90;1.23;;;16.60;99.90;;;;;;5008849;23;20487;-71
2023/05/06 06:20:56;;;;;;;0.60;0.10;;;16.60;99.90;;;;;;4993300;28;20451;-71
2023/05/06 06:23:24;;;;;;;0.60;0.10;;;16.70;99.90;;;;;;4992704;28;20816;-72
2023/05/06 06:25:52;;;;;;;0.60;0.30;;;16.70;99.90;;;;;;4993905;28;20484;-70
2023/05/06 06:28:20;;;;;;;0.70;0.20;;;16.90;99.90;;;;;;4994324;28;20439;-70
2023/05/06 06:30:49;;;;;;;0.60;0.10;;;16.80;99.90;;;;;;5000471;28;20468;-71
2023/05/06 06:33:17;;;;;;;0.60;0.10;;;16.90;99.90;;;;;;4994716;28;20547;-71
2023/05/06 06:35:44;;;;;;;0.60;0.10;;;16.90;99.90;;;;;;5001947;28;20468;-71
2023/05/06 06:38:12;;;;;;;0.60;0.13;;;17.00;99.90;;;;;;5002908;28;20451;-71
2023/05/06 06:40:40;;;;;;;0.60;0.20;;;17.00;99.90;;;;;;4998194;28;20441;-72
2023/05/06 06:43:08;;;;;;;0.60;0.10;;;;;;;;;;4997692;28;20448;-72
2023/05/06 06:45:36;;;;;;;0.60;0.10;;;17.10;99.90;;;;;;5008872;28;20484;-71
2023/05/06 06:48:05;;;;;;;0.60;0.20;;;17.20;99.90;;;;;;5009655;28;20436;-71
2023/05/06 06:50:33;;;;;;;0.60;0.10;;;17.20;99.90;;;;;;5010134;28;20449;-71
2023/05/06 06:53:02;;;;;;;0.60;0.20;;;17.20;99.90;;;;;;5005281;28;20445;-72
2023/05/06 06:55:33;;;;;;;0.60;0.10;;;17.20;99.90;;;;;;5005885;28;20441;-72
2023/05/06 06:58:00;;;;;;;0.60;0.20;;;17.30;99.90;;;;;;5001936;28;20448;-71
2023/05/06 07:00:28;;;;;;;0.60;0.20;;;17.30;99.90;;;;;;5003313;28;20452;-71
2023/05/06 07:02:56;;;;;;;0.60;0.20;;;17.30;99.90;;;;;;5010000;28;20445;-72
2023/05/06 07:05:26;;;;;;;0.60;0.10;;;17.40;99.90;;;;;;5009605;28;20487;-71
2023/05/06 07:07:54;;;;;;;0.60;0.10;;;17.40;99.90;;;;;;4997838;28;20483;-71
2023/05/06 07:10:22;;;;;;;0.60;0.10;;;17.40;99.90;;;;;;4997253;28;20529;-72
2023/05/06 07:12:50;;;;;;;0.60;0.10;;;17.40;99.90;;;;;;4996628;28;20452;-72
2023/05/06 07:15:18;;;;;;;0.60;0.20;;;17.50;99.90;;;;;;4996670;28;20885;-71
2023/05/06 07:17:46;;;;;;;0.60;0.20;;;17.60;99.90;;;;;;4996608;28;20452;-71
2023/05/06 07:20:15;;;;;;;0.60;0.13;;;17.60;99.90;;;;;;4996422;28;20681;-72
2023/05/06 07:22:44;;;;;;;0.60;0.10;;;17.70;99.90;;;;;;4996046;28;20491;-71
2023/05/06 07:25:12;;;;;;;0.60;0.10;;;17.80;99.90;;;;;;4996157;28;20480;-73
2023/05/06 07:27:40;;;;;;;0.60;0.10;;;17.80;99.90;;;;;;4996675;28;20452;-72
2023/05/06 07:30:09;;;;;;;0.60;0.10;;;17.90;99.90;;;;;;4996252;28;20487;-72
2023/05/06 07:32:36;;;;;;;0.60;0.20;;;18.00;99.90;;;;;;4996323;28;20445;-72
2023/05/06 07:35:05;;;;;;;0.60;0.10;;;18.10;99.90;;;;;;4996199;28;20999;-71
2023/05/06 07:37:33;;;;;;;0.60;0.20;;;18.20;99.90;;;;;;4996086;28;20520;-71
2023/05/06 07:40:02;;;;;;;0.60;0.10;;;18.10;99.90;;;;;;4995409;28;20556;-71
2023/05/06 07:42:30;;;;;;;0.60;0.20;;;18.10;99.90;;;;;;4992000;28;20491;-72
2023/05/06 07:44:58;;;;;;;0.60;0.10;;;18.20;99.90;;;;;;4995477;28;20507;-70
2023/05/06 07:47:28;;;;;;;0.60;0.10;;;18.20;99.90;;;;;;4995414;28;20480;-71
2023/05/06 07:49:56;;;;;;;0.60;0.20;;;18.20;99.90;;;;;;4991836;28;20533;-71
2023/05/06 07:52:24;;;;;;;0.60;0.10;;;18.30;99.90;;;;;;4995274;28;20836;-71
2023/05/06 07:54:53;;;;;;;0.60;0.20;;;18.30;99.90;;;;;;4996252;28;20543;-71
2023/05/06 07:57:22;;;;;;;0.60;0.20;;;18.30;99.90;;;;;;4996233;28;20444;-76
2023/05/06 07:59:51;;;;;;;0.60;0.10;;;18.40;99.90;;;;;;4995984;28;20487;-77
2023/05/06 08:02:19;;;;;;;0.60;0.10;;;18.50;99.90;;;;;;4990289;28;20453;-77
2023/05/06 08:04:47;;;;;;;0.60;0.10;;;18.70;99.90;;;;;;4998346;28;20441;-78
2023/05/06 08:07:18;;;;;;;0.60;0.10;;;18.70;99.90;;;;;;4999492;28;20484;-80
2023/05/06 08:09:46;;;;;;;0.60;0.10;;;18.90;99.90;;;;;;4998565;28;20495;-77
2023/05/06 08:12:14;;;;;;;0.60;0.20;;;18.90;99.90;;;;;;5002707;28;21004;-80
2023/05/06 08:14:44;;;;;;;0.60;0.10;;;18.90;99.90;;;;;;5002055;28;20490;-79
2023/05/06 08:17:12;;;;;;;0.60;0.20;;;18.90;99.90;;;;;;5002472;28;20445;-78
2023/05/06 08:19:42;;;;;;;0.60;0.10;;;18.90;99.90;;;;;;5003855;28;20484;-78
2023/05/06 08:22:10;;;;;;;0.60;0.20;;;19.00;99.90;;;;;;4997528;28;20472;-79
2023/05/06 08:24:38;;;;;;;0.60;0.17;;;19.10;99.90;;;;;;4995678;28;20463;-79
2023/05/06 08:27:06;;;;;;;0.60;0.10;;;19.30;99.90;;;;;;5004346;28;20541;-77
2023/05/06 08:29:33;;;;;;;0.60;0.20;;;19.40;99.90;;;;;;5000075;28;20470;-78
2023/05/06 08:32:03;;;;;;;0.60;0.10;;;19.40;99.90;;;;;;4996092;28;20458;-79
2023/05/06 08:34:31;;;;;;;0.60;0.10;;;19.40;99.90;;;;;;5008673;28;20441;-78
2023/05/06 08:36:59;;;;;;;0.60;0.10;;;19.50;99.90;;;;;;4999124;28;20530;-77
2023/05/06 08:39:27;;;;;;;0.60;0.20;;;19.60;99.90;;;;;;4996172;28;20507;-76
2023/05/06 08:41:57;;;;;;;0.60;0.10;;;19.60;99.90;;;;;;4996585;28;20457;-77
2023/05/06 08:44:25;;;;;;;0.60;0.10;;;19.70;99.90;;;;;;4989182;28;20472;-77
2023/05/06 08:46:54;;;;;;;0.60;0.10;;;19.70;99.90;;;;;;4996413;28;20517;-78
2023/05/06 08:49:23;;;;;;;0.60;0.10;;;19.80;99.90;;;;;;5000719;28;20471;-77
2023/05/06 08:51:52;;;;;;;1.00;0.90;;;19.90;99.90;;;;;;4999123;28;20461;-77
2023/05/06 08:54:22;;;;;;;0.60;0.20;;;19.90;99.90;;;;;;4995074;28;20457;-77
2023/05/06 08:56:53;;;;;;;0.60;0.10;;;19.70;99.90;;;;;;4996260;28;20449;-77
2023/05/06 08:59:24;;;;;;;0.60;0.10;;;19.80;99.90;;;;;;4991898;28;20557;-76
2023/05/06 09:01:52;;;;;;;0.60;0.17;;;19.80;99.90;;;;;;4998539;28;20473;-76
2023/05/06 09:04:24;;;;;;;0.60;0.10;;;19.90;99.90;;;;;;4998016;28;20460;-76
2023/05/06 09:06:52;;;;;;;0.60;0.30;;;19.90;99.90;;;;;;5000920;28;20540;-76
2023/05/06 09:09:20;;;;;;;0.60;0.20;;;20.00;99.90;;;;;;5003502;28;20469;-77
2023/05/06 09:11:52;;;;;;;0.60;0.20;;;20.00;99.90;;;;;;5004923;28;20522;-77
2023/05/06 09:14:21;;;;;;;0.60;0.20;;;20.10;99.90;;;;;;5007839;28;20434;-77
2023/05/06 09:16:51;;;;;;;0.60;0.10;;;20.20;99.90;;;;;;5000790;28;20448;-77
2023/05/06 09:19:24;;;;;;;0.60;0.20;;;20.20;99.90;;;;;;4996685;28;21035;-78
2023/05/06 09:21:52;;;;;;;0.60;0.20;;;20.20;99.90;;;;;;4996819;28;20426;-78
2023/05/06 09:24:20;;;;;;;0.60;0.20;;;20.30;99.90;;;;;;4998203;28;20441;-77
2023/05/06 09:26:48;;;;;;;0.60;0.20;;;20.40;99.90;;;;;;4998414;28;20478;-78
2023/05/06 09:29:16;;;;;;;0.60;0.10;;;20.50;99.90;;;;;;5006139;28;20442;-78
2023/05/06 09:31:45;;;;;;;0.60;0.20;;;20.50;99.90;;;;;;5015506;28;20518;-78
2023/05/06 09:34:14;;;;;;;0.60;0.20;;;20.50;99.90;;;;;;5013446;28;20521;-77
2023/05/06 09:36:44;;;;;;;0.60;0.20;;;20.50;99.90;;;;;;5005907;28;20448;-77
2023/05/06 09:39:12;;;;;;;0.60;0.10;;;20.50;99.90;;;;;;5002396;28;20468;-78
2023/05/06 09:41:40;;;;;;;0.60;0.10;;;20.50;99.90;;;;;;5004868;28;20446;-77
2023/05/06 09:44:08;;;;;;;0.60;0.20;;;20.50;99.90;;;;;;5001181;28;20456;-77
2023/05/06 09:46:36;;;;;;;0.60;0.20;;;20.60;99.90;;;;;;5000351;28;20967;-78
2023/05/06 09:49:04;;;;;;;0.60;0.10;;;20.60;99.90;;;;;;5005079;28;20467;-75
2023/05/06 09:51:32;;;;;;;0.60;0.20;;;20.70;99.90;;;;;;5005201;28;20449;-75
2023/05/06 09:54:02;;;;;;;0.60;0.20;;;20.60;99.90;;;;;;5005974;28;20443;-74
2023/05/06 09:56:31;;;;;;;0.60;0.10;;;;;;;;;;5001705;28;20560;-74
2023/05/06 09:59:03;;;;;;;0.60;0.20;;;20.90;99.90;;;;;;4994890;28;20485;-75
2023/05/06 10:01:31;;;;;;;0.60;0.20;;;20.90;99.90;;;;;;4993855;28;20449;-75
2023/05/06 10:04:08;;;;;;;0.60;0.10;;;21.00;99.90;;;;;;4990826;28;20477;-75
2023/05/06 10:06:39;;;;;;;0.60;0.10;;;21.00;99.90;;;;;;4994228;28;20815;-76
2023/05/06 10:09:09;;;;;;;0.60;0.20;;;21.10;99.90;;;;;;4979128;28;20493;-75
2023/05/06 10:11:37;;;;;;;1.23;1.13;;;21.10;99.90;;;;;;4994924;28;20794;-75
2023/05/06 10:14:06;;;;;;;0.60;0.20;;;21.10;99.90;;;;;;4999702;28;20476;-75
2023/05/06 10:16:38;;;;;;;0.60;0.10;;;20.80;99.90;;;;;;4998357;28;20465;-75
2023/05/06 10:19:08;;;;;;;0.60;0.20;;;20.80;99.90;;;;;;4996805;28;20479;-74
2023/05/06 10:21:39;;;;;;;0.60;0.10;;;20.90;99.90;;;;;;4996477;28;20537;-74
2023/05/06 10:24:11;;;;;;;0.60;0.10;;;;;;;;;;4996503;28;20445;-74
2023/05/06 10:26:45;;;;;;;0.60;0.10;;;20.90;99.90;;;;;;4995083;28;20805;-73
2023/05/06 10:29:14;;;;;;;0.60;0.10;;;;;;;;;;4996224;28;21042;-75
2023/05/06 10:31:48;;;;;;;0.60;0.10;;;21.30;99.90;;;;;;4995421;28;20451;-74
2023/05/06 10:34:19;;;;;;;0.60;0.20;;;21.50;99.90;;;;;;4995705;28;20435;-74
2023/05/06 10:36:50;;;;;;;0.60;0.10;;;21.60;99.90;;;;;;4996568;28;20514;-78
2023/05/06 10:39:19;;;;;;;0.60;0.30;;;21.50;99.90;;;;;;4996214;28;20518;-77
2023/05/06 10:41:49;;;;;;;0.70;0.27;;;21.40;99.90;;;;;;4995181;28;20457;-77
2023/05/06 10:44:17;;;;;;;0.60;0.17;;;21.30;99.90;;;;;;4997548;28;20442;-77
2023/05/06 10:46:58;;;;;;;0.60;0.20;;;20.90;99.90;;;;;;5005356;28;20447;-76
2023/05/06 10:49:27;;;;;;;0.60;0.10;;;23.30;99.90;;;;;;5006713;28;20475;-77
2023/05/06 10:52:15;;;;;;;0.60;0.10;;;21.40;99.90;;;;;;5006759;28;20442;-76
2023/05/06 10:54:50;;;;;;;0.60;0.20;;;21.40;99.90;;;;;;5005317;28;20539;-76
2023/05/06 10:57:25;;;;;;;0.60;0.20;;;21.50;99.90;;;;;;5000092;28;20505;-77
2023/05/06 10:59:55;;;;;;;0.60;0.10;;;;;;;;;;4997812;28;20471;-77
2023/05/06 11:02:30;;;;;;;0.60;0.20;;;;;;;;;;4997795;28;20458;-78
2023/05/06 11:05:01;;;;;;;0.60;0.20;;;21.20;99.90;;;;;;4994864;28;20545;-76
2023/05/06 11:07:29;;;;;;;0.60;0.20;;;21.20;99.90;;;;;;4994553;28;20576;-76
2023/05/06 11:09:58;;;;;;;0.60;0.10;;;21.20;99.90;;;;;;4994427;28;20570;-78
2023/05/06 11:12:55;;;;;;;0.60;0.20;;;21.20;99.90;;;;;;4994320;28;20478;-78
2023/05/06 11:15:37;;;;;;;0.60;0.10;;;21.20;99.90;;;;;;4972512;28;20450;-77
2023/05/06 11:18:38;;;;;;;0.60;0.10;;;21.20;99.90;;;;;;4988893;28;20457;-74
2023/05/06 11:21:36;;;;;;;0.60;0.20;;;21.20;99.90;;;;;;4993215;28;20446;-76
2023/05/06 11:24:11;;;;;;;0.60;0.20;;;;;;;;;;4999150;28;20434;-77
2023/05/06 11:26:43;;;;;;;0.60;0.20;;;21.10;99.90;;;;;;5002999;28;20450;-78
2023/05/06 11:29:16;;;;;;;0.60;0.10;;;21.20;99.90;;;;;;4995479;28;20596;-76
2023/05/06 11:31:45;;;;;;;0.60;0.13;;;21.20;99.90;;;;;;4994735;28;20437;-74
2023/05/06 11:34:20;;;;;;;0.60;0.30;;;21.30;99.90;;;;;;4993402;28;20811;-73
2023/05/06 11:36:55;;;;;;;2.80;2.03;;;21.30;99.90;;;;;;4993487;28;20451;-73
2023/05/06 11:39:24;;;;;;;0.60;0.20;;;21.40;99.90;;;;;;4993616;28;20466;-74
2023/05/06 11:41:53;;;;;;;0.60;0.10;;;21.50;99.90;;;;;;4994004;28;20873;-74
2023/05/06 11:44:27;;;;;;;0.60;0.20;;;21.50;99.90;;;;;;4993385;28;20458;-73
2023/05/06 11:46:59;;;;;;;0.60;0.20;;;21.40;99.90;;;;;;4990154;28;20934;-72
2023/05/06 11:49:27;;;;;;;0.60;0.10;;;21.50;99.90;;;;;;4993186;28;20843;-73
2023/05/06 11:51:56;;;;;;;0.60;0.10;;;21.50;99.90;;;;;;4995820;28;20834;-72
2023/05/06 11:54:26;;;;;;;0.60;0.20;;;21.60;99.90;;;;;;4997112;28;20451;-73
2023/05/06 11:56:56;;;;;;;0.60;0.10;;;21.60;99.90;;;;;;4980531;28;20474;-74
2023/05/06 11:59:30;;;;;;;0.60;0.20;;;21.50;99.90;;;;;;4996826;28;20558;-73
2023/05/06 12:02:00;;;;;;;0.60;0.10;;;21.60;99.90;;;;;;5015548;28;20456;-73
2023/05/06 12:04:36;;;;;;;0.60;0.20;;;21.60;99.90;;;;;;5016701;28;20436;-75
2023/05/06 12:07:06;;;;;;;0.60;0.10;;;21.60;99.90;;;;;;5016404;28;20537;-73
2023/05/06 12:09:34;;;;;;;0.60;0.10;;;21.50;99.90;;;;;;5015155;28;21045;-74
2023/05/06 12:12:04;;;;;;;0.60;0.10;;;21.40;99.90;;;;;;4998921;28;20485;-76
2023/05/06 12:14:36;;;;;;;0.60;0.10;;;21.50;99.90;;;;;;4996114;28;20941;-74
2023/05/06 12:17:04;;;;;;;0.60;0.10;;;21.60;99.90;;;;;;4996581;28;20453;-73
2023/05/06 12:19:32;;;;;;;0.60;0.20;;;21.50;99.90;;;;;;4992973;23;20496;-73
2023/05/06 12:22:14;;;;;;;0.60;0.10;;;21.60;99.90;;;;;;4936745;29;20968;-73
2023/05/06 12:24:43;;;;;;;0.60;0.10;;;;;;;;;;4937747;29;20455;-74
2023/05/06 12:27:10;;;;;;;0.60;0.20;;;21.40;99.90;;;;;;4938102;29;20456;-74
2023/05/06 12:29:40;;;;;;;0.60;0.20;;;;;;;;;;4938032;29;20490;-72
2023/05/06 12:32:09;;;;;;;0.60;0.20;;;21.50;99.90;;;;;;4936875;29;20933;-73
2023/05/06 12:34:38;;;;;;;0.60;0.10;;;21.60;99.90;;;;;;4936976;29;20535;-73
2023/05/06 12:37:06;;;;;;;0.60;0.10;;;;;;;;;;4937294;29;20484;-72
2023/05/06 12:39:35;;;;;;;0.60;0.10;;;21.70;99.90;;;;;;4936709;29;20844;-73
2023/05/06 12:42:03;;;;;;;0.60;0.10;;;21.80;99.90;;;;;;4936382;29;20449;-72
2023/05/06 12:44:32;;;;;;;0.60;0.20;;;21.90;99.90;;;;;;4936609;29;20449;-73
2023/05/06 12:47:03;;;;;;;0.60;0.20;;;21.80;99.90;;;;;;4936510;29;20826;-73
2023/05/06 12:49:46;;;;;;;0.60;0.20;;;21.80;99.90;;;;;;4936923;29;20525;-74
2023/05/06 12:52:14;;;;;;;0.60;0.13;;;21.90;99.90;;;;;;4936053;29;20873;-72
2023/05/06 12:54:42;;;;;;;0.60;0.20;;;22.00;99.90;;;;;;4937208;29;20519;-73
2023/05/06 12:57:10;;;;;;;0.60;0.17;;;22.10;99.90;;;;;;4936363;29;20449;-73
2023/05/06 12:59:39;;;;;;;0.60;0.10;;;22.20;99.90;;;;;;4936623;29;20844;-73
2023/05/06 13:02:08;;;;;;;0.60;0.20;;;22.20;99.90;;;;;;4937121;29;20449;-73
2023/05/06 13:04:36;;;;;;;0.60;0.17;;;22.40;99.90;;;;;;4937105;29;20449;-73
2023/05/06 13:07:04;;;;;;;0.60;0.10;;;22.50;99.90;;;;;;4938980;29;20454;-72
2023/05/06 13:09:32;;;;;;;0.60;0.10;;;22.60;99.90;;;;;;4936712;29;20491;-73